createdAt,value
2018-03-02T00:00:47.108Z,100072.80
2018-03-02T00:03:16.957Z,100064.70
2018-03-02T00:05:46.604Z,100058.95
2018-03-02T00:08:16.385Z,100062.55
2018-03-02T00:10:49.367Z,100064.78
2018-03-02T00:13:19.099Z,100056.95
2018-03-02T00:15:49.014Z,100064.98
2018-03-02T00:18:18.765Z,100054.88
2018-03-02T00:20:48.571Z,100051.41
2018-03-02T00:23:18.325Z,100050.22
2018-03-02T00:25:48.780Z,100045.70
2018-03-02T00:28:18.668Z,100038.72
2018-03-02T00:30:48.432Z,100028.14
2018-03-02T00:33:18.271Z,100036.32
2018-03-02T00:35:48.016Z,100032.06
2018-03-02T00:38:18.465Z,100024.78
2018-03-02T00:40:48.336Z,100016.27
2018-03-02T00:43:18.032Z,100019.32
2018-03-02T00:45:48.552Z,100017.42
2018-03-02T00:48:18.376Z,100010.59
2018-03-02T00:50:48.148Z,100005.73
2018-03-02T00:53:17.929Z,100012.16
2018-03-02T00:55:47.732Z,100009.36
2018-03-02T00:58:17.485Z,100003.11
2018-03-02T01:00:48.078Z,99999.84
2018-03-02T01:03:17.839Z,99998.12
2018-03-02T01:05:47.534Z,99990.65
2018-03-02T01:08:17.298Z,99987.28
2018-03-02T01:10:47.913Z,99995.69
2018-03-02T01:13:17.658Z,99991.02
2018-03-02T01:15:47.507Z,99983.30
2018-03-02T01:18:17.315Z,99980.00
2018-03-02T01:20:48.039Z,99980.38
2018-03-02T01:23:17.924Z,99981.09
2018-03-02T01:25:47.761Z,99979.31
2018-03-02T01:28:17.478Z,99973.09
2018-03-02T01:30:47.224Z,99974.87
2018-03-02T01:33:16.937Z,99967.63
2018-03-02T01:35:47.592Z,99968.95
2018-03-02T01:38:17.387Z,99963.48
2018-03-02T01:40:47.152Z,99970.64
2018-03-02T01:43:16.825Z,99969.23
2018-03-02T01:45:46.746Z,99966.05
2018-03-02T01:48:16.417Z,99959.50
2018-03-02T01:50:46.133Z,99958.39
2018-03-02T01:53:15.831Z,99947.98
2018-03-02T01:55:45.571Z,99952.09
2018-03-02T01:58:15.407Z,99951.36
2018-03-02T02:00:45.960Z,99947.61
2018-03-02T02:03:16.502Z,99946.61
2018-03-02T02:05:47.369Z,99941.52
2018-03-02T02:08:17.022Z,99951.03
2018-03-02T02:10:46.843Z,99937.95
2018-03-02T02:13:16.651Z,99936.52
2018-03-02T02:15:46.404Z,99936.52
2018-03-02T02:18:16.365Z,99934.93
2018-03-02T02:20:46.809Z,99939.04
2018-03-02T02:23:17.303Z,99938.83
2018-03-02T02:25:47.008Z,99938.64
2018-03-02T02:28:17.058Z,99926.96
2018-03-02T02:30:46.820Z,99930.92
2018-03-02T02:33:16.525Z,99930.28
2018-03-02T02:35:46.403Z,99914.69
2018-03-02T02:38:16.217Z,99920.50
2018-03-02T02:40:45.914Z,99918.05
2018-03-02T02:43:16.393Z,99910.39
2018-03-02T02:45:46.153Z,99910.91
2018-03-02T02:48:15.877Z,99912.81
2018-03-02T02:50:45.763Z,99896.02
2018-03-02T02:53:15.467Z,99905.59
2018-03-02T02:55:45.134Z,99896.78
2018-03-02T02:58:15.340Z,99899.16
2018-03-02T03:00:45.096Z,99904.48
2018-03-02T03:03:14.958Z,99899.36
2018-03-02T03:05:44.723Z,99908.86
2018-03-02T03:08:15.340Z,99912.55
2018-03-02T03:10:45.029Z,99913.85
2018-03-02T03:13:15.604Z,99909.34
2018-03-02T03:15:45.292Z,99903.05
2018-03-02T03:18:15.818Z,99891.67
2018-03-02T03:20:45.475Z,99894.86
2018-03-02T03:23:15.298Z,99896.86
2018-03-02T03:25:45.021Z,99884.72
2018-03-02T03:28:14.864Z,99886.33
2018-03-02T03:30:44.688Z,99882.27
2018-03-02T03:33:14.456Z,99868.09
2018-03-02T03:35:45.220Z,99870.98
2018-03-02T03:38:14.927Z,99862.49
2018-03-02T03:40:45.545Z,99859.78
2018-03-02T03:43:15.404Z,99860.03
2018-03-02T03:45:52.517Z,99855.54
2018-03-02T03:48:22.191Z,99849.91
2018-03-02T03:50:51.961Z,99856.88
2018-03-02T03:53:21.859Z,99861.38
2018-03-02T03:55:52.348Z,99857.39
2018-03-02T03:58:22.081Z,99840.34
2018-03-02T04:00:51.802Z,99842.28
2018-03-02T04:03:21.582Z,99841.13
2018-03-02T04:05:51.517Z,99830.17
2018-03-02T04:08:21.279Z,99834.72
2018-03-02T04:10:51.081Z,99825.31
2018-03-02T04:13:20.867Z,99830.34
2018-03-02T04:15:51.355Z,99822.36
2018-03-02T04:18:21.205Z,99823.09
2018-03-02T04:20:50.951Z,99814.77
2018-03-02T04:23:20.656Z,99798.23
2018-03-02T04:25:50.388Z,99805.31
2018-03-02T04:28:20.851Z,99808.11
2018-03-02T04:30:50.722Z,99814.12
2018-03-02T04:33:20.528Z,99814.17
2018-03-02T04:35:50.316Z,99809.30
2018-03-02T04:38:20.104Z,99814.81
2018-03-02T04:40:50.038Z,99802.74
2018-03-02T04:43:20.649Z,99814.42
2018-03-02T04:45:50.744Z,99791.38
2018-03-02T04:48:20.566Z,99788.42
2018-03-02T04:50:50.380Z,99789.22
2018-03-02T04:53:20.058Z,99796.91
2018-03-02T04:55:49.818Z,99784.09
2018-03-02T04:58:20.924Z,99782.13
2018-03-02T05:00:50.726Z,99786.92
2018-03-02T05:03:20.490Z,99778.66
2018-03-02T05:05:50.389Z,99781.63
2018-03-02T05:08:20.478Z,99772.75
2018-03-02T05:10:50.214Z,99773.14
2018-03-02T05:13:20.033Z,99766.97
2018-03-02T05:15:49.745Z,99755.88
2018-03-02T05:18:19.495Z,99763.46
2018-03-02T05:20:49.211Z,99761.55
2018-03-02T05:23:19.091Z,99761.77
2018-03-02T05:25:49.553Z,99772.65
2018-03-02T05:28:19.281Z,99773.09
2018-03-02T05:30:49.396Z,99769.88
2018-03-02T05:33:20.010Z,99769.52
2018-03-02T05:35:49.804Z,99771.36
2018-03-02T05:38:19.610Z,99777.30
2018-03-02T05:40:49.979Z,99774.66
2018-03-02T05:43:19.724Z,99775.02
2018-03-02T05:45:50.294Z,99768.92
2018-03-02T05:48:19.996Z,99767.54
2018-03-02T05:50:57.312Z,99767.48
2018-03-02T05:53:27.033Z,99771.49
2018-03-02T05:55:57.318Z,99769.48
2018-03-02T05:58:27.117Z,99774.40
2018-03-02T06:00:56.940Z,99773.05
2018-03-02T06:03:26.737Z,99762.95
2018-03-02T06:05:56.677Z,99774.42
2018-03-02T06:08:26.618Z,99773.03
2018-03-02T06:10:56.476Z,99766.00
2018-03-02T06:13:26.273Z,99764.60
2018-03-02T06:15:57.049Z,99769.02
2018-03-02T06:18:26.911Z,99761.17
2018-03-02T06:20:56.942Z,99762.07
2018-03-02T06:23:26.695Z,99755.06
2018-03-02T06:25:56.489Z,99750.33
2018-03-02T06:28:26.249Z,99743.03
2018-03-02T06:30:56.041Z,99732.56
2018-03-02T06:33:25.760Z,99735.90
2018-03-02T06:35:55.682Z,99730.55
2018-03-02T06:38:25.405Z,99738.22
2018-03-02T06:40:55.273Z,99735.73
2018-03-02T06:43:25.124Z,99732.30
2018-03-02T06:45:55.825Z,99726.76
2018-03-02T06:48:25.519Z,99740.19
2018-03-02T06:50:55.253Z,99743.73
2018-03-02T06:53:25.023Z,99744.17
2018-03-02T06:55:54.872Z,99739.00
2018-03-02T06:58:25.489Z,99744.03
2018-03-02T07:00:55.533Z,99740.58
2018-03-02T07:03:26.150Z,99724.08
2018-03-02T07:05:56.116Z,99738.42
2018-03-02T07:08:25.837Z,99735.52
2018-03-02T07:10:55.612Z,99733.42
2018-03-02T07:13:25.403Z,99739.55
2018-03-02T07:15:55.256Z,99731.86
2018-03-02T07:18:25.172Z,99738.97
2018-03-02T07:20:55.479Z,99733.60
2018-03-02T07:23:25.421Z,99724.52
2018-03-02T07:25:55.422Z,99726.97
2018-03-02T07:28:25.888Z,99721.06
2018-03-02T07:30:55.613Z,99734.69
2018-03-02T07:33:25.440Z,99730.62
2018-03-02T07:35:55.281Z,99742.95
2018-03-02T07:38:25.059Z,99734.78
2018-03-02T07:40:55.701Z,99725.20
2018-03-02T07:43:25.544Z,99728.38
2018-03-02T07:45:55.411Z,99714.80
2018-03-02T07:48:25.325Z,99718.53
2018-03-02T07:50:55.082Z,99718.75
2018-03-02T07:53:25.647Z,99714.17
2018-03-02T07:55:55.456Z,99711.00
2018-03-02T07:58:25.403Z,99704.92
2018-03-02T08:00:55.131Z,99703.72
2018-03-02T08:03:24.869Z,99704.05
2018-03-02T08:05:55.417Z,99700.02
2018-03-02T08:08:26.883Z,99684.20
2018-03-02T08:10:56.778Z,99703.44
2018-03-02T08:13:26.606Z,99679.47
2018-03-02T08:15:56.404Z,99682.45
2018-03-02T08:18:26.864Z,99681.27
2018-03-02T08:20:56.560Z,99678.58
2018-03-02T08:23:27.144Z,99685.82
2018-03-02T08:25:56.921Z,99680.13
2018-03-02T08:28:27.558Z,99683.61
2018-03-02T08:30:58.213Z,99680.41
2018-03-02T08:33:29.000Z,99677.03
2018-03-02T08:35:58.762Z,99673.11
2018-03-02T08:38:28.565Z,99675.39
2018-03-02T08:40:59.198Z,99671.59
2018-03-02T08:43:28.940Z,99674.45
2018-03-02T08:45:58.707Z,99664.49
2018-03-02T08:48:28.442Z,99674.61
2018-03-02T08:50:58.255Z,99670.80
2018-03-02T08:53:28.072Z,99666.27
2018-03-02T08:55:57.793Z,99674.16
2018-03-02T08:58:27.664Z,99666.72
2018-03-02T09:00:57.402Z,99668.45
2018-03-02T09:03:27.212Z,99657.58
2018-03-02T09:05:57.198Z,99657.77
2018-03-02T09:08:27.476Z,99657.73
2018-03-02T09:10:57.552Z,99666.41
2018-03-02T09:13:27.416Z,99671.59
2018-03-02T09:15:57.130Z,99670.45
2018-03-02T09:18:26.884Z,99670.48
2018-03-02T09:20:56.841Z,99664.27
2018-03-02T09:23:27.380Z,99673.47
2018-03-02T09:25:57.887Z,99667.08
2018-03-02T09:28:27.771Z,99673.59
2018-03-02T09:30:57.501Z,99676.88
2018-03-02T09:33:27.276Z,99667.05
2018-03-02T09:35:57.143Z,99669.91
2018-03-02T09:38:26.834Z,99666.09
2018-03-02T09:40:57.416Z,99659.59
2018-03-02T09:43:27.177Z,99652.55
2018-03-02T09:45:56.951Z,99667.84
2018-03-02T09:48:26.736Z,99660.20
2018-03-02T09:50:57.381Z,99659.08
2018-03-02T09:53:27.913Z,99665.66
2018-03-02T09:55:58.530Z,99668.56
2018-03-02T09:58:28.255Z,99664.84
2018-03-02T10:00:57.963Z,99662.64
2018-03-02T10:03:27.838Z,99659.41
2018-03-02T10:05:58.338Z,99666.70
2018-03-02T10:08:28.320Z,99674.59
2018-03-02T10:10:57.999Z,99675.84
2018-03-02T10:13:27.944Z,99674.06
2018-03-02T10:15:58.558Z,99671.58
2018-03-02T10:18:28.394Z,99676.62
2018-03-02T10:20:58.256Z,99683.22
2018-03-02T10:23:28.184Z,99676.39
2018-03-02T10:25:58.257Z,99681.97
2018-03-02T10:28:28.016Z,99674.09
2018-03-02T10:30:57.769Z,99672.33
2018-03-02T10:33:27.555Z,99680.59
2018-03-02T10:35:58.047Z,99670.45
2018-03-02T10:38:27.747Z,99670.91
2018-03-02T10:40:57.492Z,99668.55
2018-03-02T10:43:28.075Z,99669.09
2018-03-02T10:45:57.913Z,99668.48
2018-03-02T10:48:28.504Z,99686.25
2018-03-02T10:50:58.320Z,99680.27
2018-03-02T10:53:28.157Z,99677.20
2018-03-02T10:56:00.760Z,99677.98
2018-03-02T10:58:30.515Z,99677.85
2018-03-02T11:01:05.011Z,99676.34
2018-03-02T11:03:39.392Z,99663.05
2018-03-02T11:06:09.231Z,99665.30
2018-03-02T11:08:39.018Z,99668.73
2018-03-02T11:11:09.656Z,99667.19
2018-03-02T11:13:39.458Z,99669.04
2018-03-02T11:16:09.253Z,99660.33
2018-03-02T11:18:39.027Z,99668.88
2018-03-02T11:21:08.782Z,99666.81
2018-03-02T11:23:38.608Z,99654.59
2018-03-02T11:26:08.472Z,99651.01
2018-03-02T11:28:38.367Z,99648.84
2018-03-02T11:31:08.248Z,99661.81
2018-03-02T11:33:37.967Z,99639.11
2018-03-02T11:36:07.737Z,99649.52
2018-03-02T11:38:37.524Z,99654.83
2018-03-02T11:41:08.097Z,99641.98
2018-03-02T11:43:37.900Z,99638.13
2018-03-02T11:46:08.476Z,99637.77
2018-03-02T11:48:38.220Z,99634.23
2018-03-02T11:51:08.890Z,99641.86
2018-03-02T11:53:39.490Z,99638.25
2018-03-02T11:56:09.299Z,99633.45
2018-03-02T11:58:39.113Z,99633.38
2018-03-02T12:01:08.844Z,99633.58
2018-03-02T12:03:38.628Z,99626.03
2018-03-02T12:06:09.242Z,99630.45
2018-03-02T12:08:39.054Z,99631.34
2018-03-02T12:11:09.122Z,99624.73
2018-03-02T12:13:38.887Z,99609.73
2018-03-02T12:16:08.776Z,99612.22
2018-03-02T12:18:41.046Z,99610.29
2018-03-02T12:21:11.726Z,99618.05
2018-03-02T12:23:41.471Z,99618.44
2018-03-02T12:26:11.277Z,99612.77
2018-03-02T12:28:40.981Z,99605.48
2018-03-02T12:31:10.823Z,99596.98
2018-03-02T12:33:41.530Z,99608.91
2018-03-02T12:36:12.097Z,99621.16
2018-03-02T12:38:41.851Z,99613.11
2018-03-02T12:41:11.753Z,99605.19
2018-03-02T12:43:41.488Z,99590.90
2018-03-02T12:46:11.236Z,99591.30
2018-03-02T12:48:40.968Z,99589.35
2018-03-02T12:51:10.700Z,99592.38
2018-03-02T12:53:40.472Z,99592.77
2018-03-02T12:56:10.377Z,99596.47
2018-03-02T12:58:40.115Z,99601.97
2018-03-02T13:01:09.956Z,99590.54
2018-03-02T13:03:39.685Z,99601.95
2018-03-02T13:06:09.628Z,99597.68
2018-03-02T13:08:39.391Z,99593.52
2018-03-02T13:11:09.102Z,99588.98
2018-03-02T13:13:39.679Z,99593.09
2018-03-02T13:16:09.475Z,99595.88
2018-03-02T13:18:44.335Z,99585.73
2018-03-02T13:21:14.259Z,99592.30
2018-03-02T13:23:44.136Z,99586.55
2018-03-02T13:26:27.132Z,99582.92
2018-03-02T13:28:57.092Z,99587.47
2018-03-02T13:31:26.856Z,99593.15
2018-03-02T13:34:13.514Z,99579.63
2018-03-02T13:36:43.290Z,99591.52
2018-03-02T13:39:14.919Z,99575.01
2018-03-02T13:42:05.257Z,99575.45
2018-03-02T13:44:35.806Z,99572.97
2018-03-02T13:47:05.771Z,99578.00
2018-03-02T13:50:12.481Z,99591.25
2018-03-02T13:52:42.272Z,99566.20
2018-03-02T13:55:12.148Z,99577.85
2018-03-02T13:58:01.381Z,99571.66
2018-03-02T14:00:31.189Z,99571.77
2018-03-02T14:04:19.325Z,99557.70
2018-03-02T14:06:49.898Z,99549.86
2018-03-02T14:09:19.705Z,99556.41
2018-03-02T14:11:50.180Z,99555.20
2018-03-02T14:14:20.278Z,99538.25
2018-03-02T14:16:50.166Z,99540.22
2018-03-02T14:19:20.415Z,99532.87
2018-03-02T14:21:50.308Z,99533.55
2018-03-02T14:24:20.007Z,99532.50
2018-03-02T14:26:49.969Z,99525.77
2018-03-02T14:29:19.686Z,99527.22
2018-03-02T14:31:49.511Z,99534.84
2018-03-02T14:34:19.248Z,99534.70
2018-03-02T14:36:49.012Z,99525.56
2018-03-02T14:39:18.854Z,99528.23
2018-03-02T14:41:48.582Z,99523.02
2018-03-02T14:44:18.639Z,99526.16
2018-03-02T14:46:48.349Z,99519.30
2018-03-02T14:49:18.920Z,99531.75
2018-03-02T14:51:49.447Z,99536.09
2018-03-02T14:54:19.217Z,99521.48
2018-03-02T14:56:48.969Z,99522.89
2018-03-02T14:59:18.848Z,99517.98
2018-03-02T15:01:48.562Z,99526.25
2018-03-02T15:04:19.106Z,99523.66
2018-03-02T15:06:49.621Z,99520.41
2018-03-02T15:09:19.423Z,99519.27
2018-03-02T15:11:49.317Z,99519.30
2018-03-02T15:14:19.001Z,99522.17
2018-03-02T15:16:49.572Z,99522.03
2018-03-02T15:19:19.298Z,99526.37
2018-03-02T15:21:49.052Z,99534.29
2018-03-02T15:24:18.900Z,99520.75
2018-03-02T15:26:48.625Z,99515.53
2018-03-02T15:29:18.392Z,99532.32
2018-03-02T15:31:48.106Z,99526.91
2018-03-02T15:34:17.874Z,99539.44
2018-03-02T15:36:47.714Z,99535.07
2018-03-02T15:39:17.508Z,99532.38
2018-03-02T15:41:47.310Z,99528.73
2018-03-02T15:44:17.070Z,99541.03
2018-03-02T15:46:46.840Z,99543.30
2018-03-02T15:49:16.718Z,99544.50
2018-03-02T15:51:46.521Z,99553.70
2018-03-02T15:54:16.241Z,99542.89
2018-03-02T15:56:46.217Z,99548.50
2018-03-02T15:59:16.789Z,99556.55
2018-03-02T16:01:46.610Z,99558.87
2018-03-02T16:04:17.313Z,99558.63
2018-03-02T16:06:47.060Z,99569.22
2018-03-02T16:09:16.804Z,99562.45
2018-03-02T16:11:46.617Z,99565.39
2018-03-02T16:14:16.615Z,99558.78
2018-03-02T16:16:46.661Z,99568.08
2018-03-02T16:19:16.420Z,99557.64
2018-03-02T16:21:46.348Z,99554.44
2018-03-02T16:24:16.148Z,99569.56
2018-03-02T16:26:45.983Z,99561.72
2018-03-02T16:29:15.832Z,99561.86
2018-03-02T16:31:46.915Z,99556.55
2018-03-02T16:34:17.615Z,99564.19
2018-03-02T16:36:48.791Z,99567.33
2018-03-02T16:39:18.630Z,99569.14
2018-03-02T16:41:48.464Z,99569.22
2018-03-02T16:44:19.482Z,99582.08
2018-03-02T16:46:49.335Z,99580.88
2018-03-02T16:49:19.041Z,99582.95
2018-03-02T16:51:48.771Z,99579.67
2018-03-02T16:54:18.622Z,99577.77
2018-03-02T16:56:49.208Z,99585.50
2018-03-02T16:59:20.220Z,99568.23
2018-03-02T17:01:51.050Z,99587.42
2018-03-02T17:04:21.838Z,99596.63
2018-03-02T17:06:51.536Z,99594.77
2018-03-02T17:09:21.450Z,99600.23
2018-03-02T17:11:51.992Z,99592.47
2018-03-02T17:14:22.603Z,99601.96
2018-03-02T17:16:52.400Z,99594.64
2018-03-02T17:19:22.705Z,99600.25
2018-03-02T17:21:52.421Z,99598.89
2018-03-02T17:24:23.129Z,99604.52
2018-03-02T17:26:52.848Z,99617.84
2018-03-02T17:29:22.683Z,99612.95
2018-03-02T17:31:53.032Z,99612.20
2018-03-02T17:34:23.548Z,99623.58
2018-03-02T17:36:53.323Z,99617.03
2018-03-02T17:39:23.124Z,99624.34
2018-03-02T17:41:53.126Z,99629.52
2018-03-02T17:44:23.025Z,99636.63
2018-03-02T17:46:52.797Z,99632.90
2018-03-02T17:49:23.383Z,99639.86
2018-03-02T17:51:54.568Z,99638.61
2018-03-02T17:54:24.402Z,99641.16
2018-03-02T17:56:54.288Z,99647.52
2018-03-02T17:59:24.114Z,99644.59
2018-03-02T18:01:53.948Z,99645.50
2018-03-02T18:04:23.744Z,99648.42
2018-03-02T18:06:53.601Z,99640.45
2018-03-02T18:09:23.489Z,99644.14
2018-03-02T18:11:53.248Z,99649.78
2018-03-02T18:14:23.033Z,99635.37
2018-03-02T18:16:52.920Z,99649.97
2018-03-02T18:19:22.670Z,99651.75
2018-03-02T18:21:53.290Z,99657.08
2018-03-02T18:24:23.117Z,99655.32
2018-03-02T18:26:53.020Z,99661.02
2018-03-02T18:29:23.198Z,99664.59
2018-03-02T18:31:53.061Z,99658.84
2018-03-02T18:34:22.861Z,99665.63
2018-03-02T18:36:52.632Z,99663.38
2018-03-02T18:39:22.479Z,99663.33
2018-03-02T18:41:53.341Z,99664.23
2018-03-02T18:44:23.242Z,99660.45
2018-03-02T18:46:53.220Z,99657.94
2018-03-02T18:49:23.039Z,99650.78
2018-03-02T18:51:52.927Z,99647.13
2018-03-02T18:54:23.705Z,99651.95
2018-03-02T18:56:53.690Z,99657.52
2018-03-02T18:59:23.464Z,99653.70
2018-03-02T19:01:53.500Z,99661.85
2018-03-02T19:04:23.329Z,99661.56
2018-03-02T19:06:53.435Z,99657.02
2018-03-02T19:09:23.560Z,99654.09
2018-03-02T19:11:53.629Z,99663.91
2018-03-02T19:14:23.340Z,99657.31
2018-03-02T19:16:53.195Z,99654.28
2018-03-02T19:19:23.771Z,99662.66
2018-03-02T19:21:53.740Z,99663.59
2018-03-02T19:24:23.560Z,99666.80
2018-03-02T19:26:53.512Z,99669.66
2018-03-02T19:29:23.340Z,99664.56
2018-03-02T19:31:54.390Z,99669.27
2018-03-02T19:34:24.221Z,99672.21
2018-03-02T19:36:54.785Z,99679.84
2018-03-02T19:39:26.088Z,99684.27
2018-03-02T19:41:56.527Z,99683.88
2018-03-02T19:44:26.336Z,99688.77
2018-03-02T19:46:56.250Z,99687.22
2018-03-02T19:49:26.555Z,99689.47
2018-03-02T19:51:57.404Z,99690.59
2018-03-02T19:54:28.067Z,99691.98
2018-03-02T19:56:57.831Z,99691.67
2018-03-02T19:59:27.700Z,99692.41
2018-03-02T20:01:58.192Z,99699.91
2018-03-02T20:04:28.127Z,99699.27
2018-03-02T20:06:57.957Z,99703.59
2018-03-02T20:09:27.814Z,99703.99
2018-03-02T20:11:58.615Z,99707.03
2018-03-02T20:14:28.361Z,99712.33
2018-03-02T20:16:58.787Z,99710.64
2018-03-02T20:19:28.593Z,99709.76
2018-03-02T20:21:58.554Z,99712.17
2018-03-02T20:24:28.529Z,99712.03
2018-03-02T20:26:58.321Z,99710.11
2018-03-02T20:29:29.245Z,99717.76
2018-03-02T20:31:59.039Z,99718.81
2018-03-02T20:34:29.114Z,99714.67
2018-03-02T20:37:00.036Z,99717.52
2018-03-02T20:39:29.821Z,99718.67
2018-03-02T20:41:59.565Z,99708.78
2018-03-02T20:44:29.485Z,99706.93
2018-03-02T20:46:59.755Z,99715.23
2018-03-02T20:49:30.234Z,99710.14
2018-03-02T20:52:00.230Z,99710.41
2018-03-02T20:54:30.090Z,99708.55
2018-03-02T20:56:59.916Z,99704.01
2018-03-02T20:59:29.660Z,99711.97
2018-03-02T21:01:59.734Z,99713.41
2018-03-02T21:04:30.581Z,99711.95
2018-03-02T21:07:01.198Z,99718.52
2018-03-02T21:09:31.316Z,99721.89
2018-03-02T21:12:01.176Z,99719.52
2018-03-02T21:14:31.798Z,99724.17
2018-03-02T21:17:01.587Z,99721.95
2018-03-02T21:19:31.316Z,99720.28
2018-03-02T21:22:01.125Z,99717.83
2018-03-02T21:24:30.872Z,99716.14
2018-03-02T21:27:00.627Z,99714.44
2018-03-02T21:29:31.259Z,99714.48
2018-03-02T21:32:01.001Z,99719.27
2018-03-02T21:34:31.545Z,99720.64
2018-03-02T21:37:01.374Z,99723.02
2018-03-02T21:39:31.143Z,99722.18
2018-03-02T21:42:01.088Z,99726.85
2018-03-02T21:44:30.886Z,99727.27
2018-03-02T21:47:00.773Z,99721.41
2018-03-02T21:49:31.325Z,99725.06
2018-03-02T21:52:01.018Z,99728.39
2018-03-02T21:54:30.916Z,99724.41
2018-03-02T21:57:00.664Z,99729.48
2018-03-02T21:59:30.444Z,99731.20
2018-03-02T22:02:00.178Z,99729.52
2018-03-02T22:04:30.369Z,99725.08
2018-03-02T22:07:00.143Z,99723.80
2018-03-02T22:09:29.967Z,99722.38
2018-03-02T22:12:00.586Z,99724.73
2018-03-02T22:14:30.459Z,99722.66
2018-03-02T22:17:01.038Z,99728.77
2018-03-02T22:19:30.806Z,99726.55
2018-03-02T22:22:00.490Z,99721.89
2018-03-02T22:24:30.279Z,99723.13
2018-03-02T22:27:00.735Z,99723.17
2018-03-02T22:29:31.092Z,99715.30
2018-03-02T22:32:00.882Z,99714.77
2018-03-02T22:34:31.750Z,99721.45
2018-03-02T22:37:02.905Z,99720.01
2018-03-02T22:39:32.772Z,99715.19
2018-03-02T22:42:02.571Z,99712.98
2018-03-02T22:44:32.377Z,99717.63
2018-03-02T22:47:02.208Z,99717.25
2018-03-02T22:49:32.951Z,99716.59
2018-03-02T22:52:02.860Z,99711.63
2018-03-02T22:54:33.135Z,99711.89
2018-03-02T22:57:02.933Z,99707.59
2018-03-02T22:59:33.680Z,99708.93
2018-03-02T23:02:03.737Z,99706.63
2018-03-02T23:04:33.540Z,99707.04
2018-03-02T23:07:04.080Z,99710.23
2018-03-02T23:09:33.985Z,99713.23
2018-03-02T23:12:03.970Z,99714.22
2018-03-02T23:14:34.063Z,99709.81
2018-03-02T23:17:03.897Z,99698.39
2018-03-02T23:19:34.058Z,99697.05
2018-03-02T23:22:03.787Z,99706.63
2018-03-02T23:24:33.580Z,99700.20
2018-03-02T23:27:03.499Z,99697.35
2018-03-02T23:29:33.215Z,99695.61
2018-03-02T23:32:03.003Z,99697.06
2018-03-02T23:34:32.848Z,99706.91
2018-03-02T23:37:02.748Z,99701.99
2018-03-02T23:39:32.871Z,99695.59
2018-03-02T23:42:03.437Z,99696.41
2018-03-02T23:44:33.129Z,99692.97
2018-03-02T23:47:03.634Z,99687.53
2018-03-02T23:49:33.488Z,99688.66
2018-03-02T23:52:04.342Z,99687.45
2018-03-02T23:54:34.333Z,99700.06
2018-03-02T23:57:04.447Z,99700.77
2018-03-02T23:59:34.221Z,99697.24
